KCVG

Cincinnati North Kentucky

Airport
ICAO code
KCVG
Summary
ICAO Region
NAM
ICAO Territory
Location

Cincinnati, Kentucky,

Elevation
896 ft
Coordinates
39° 6' 12" N , 84° 25' 8" W
KCC
Airport BS
Bird Strike
Metar
Observation
KCVG 281052Z 26004KT 5SM BR OVC011 06/05 A2987 RMK AO2 SLP116 T00560050
Station
Covington / Cincinnati, Cincinnati / Northern Kentucky International Airport
Date/Time
2022-11-28 10:52:00
Wind direction
260°
Wind speed
04 kts
Lowest cloud amount
overcast
Temperature
5.6°C
Dew point
5°C
Humidity
95%
Weather condition
mist

Description

Airport serving Cincinnati, Kentucky,USA.

Climatology

Humid “subtropical” climate (Köppen climate classification Cfa) - characterized by hot, humid summers and cool winters. Significant amounts of precipitation occur in all seasons in most areas. Winter rainfall (and sometimes snowfall) is associated with large storms that the westerlies steer from west to east. Most summer rainfall occurs during thunderstorms.

Airport map

Aerial View

SKYbrary Partners:

Safety knowledge contributed by: